Terminal Aerodrome Forecast
Issued by NWS

Home | Current Version | Previous Version | Text Only | Print | Product List | Glossary On
Versions: 1 2 3 4 5 6 7 8 9 10 11 12 13 14 15 16 17 18 19 20 21 22 23
000
FTUS45 KLKN 282320
TAFELY
TAF
KELY 282320Z 2900/2924 31009KT P6SM SCT150
     FM290500 17009KT P6SM SCT200
     FM291700 17009KT P6SM VCTS SCT100CB=

USA.gov is the U.S. government's official web portal to all federal, state and local government web resources and services.